Time;durP1;ratioP1;P1;durP2;ratioP2;P2;SDS_P1;SDS_P2;PMS_P1;PMS_P2;Temp;Humidity;BMP_temperature;BMP_pressure;BME280_temperature;BME280_humidity;BME280_pressure;Samples;Min_cycle;Max_cycle;Signal;HPM_P1;HPM_P2
2022/01/20 00:03:20;;;;;;;13.65;2.75;;;3.60;99.90;;;;;;5026684;28;20048;-67
2022/01/20 00:09:22;;;;;;;23.05;2.95;;;3.70;99.90;;;;;;5028517;28;20052;-67
2022/01/20 00:27:55;;;;;;;17.45;2.55;;;3.80;99.90;;;;;;5044869;28;20053;-67
2022/01/20 00:38:15;;;;;;;12.57;2.17;;;3.90;99.90;;;;;;5029442;28;20060;-67
2022/01/20 00:40:42;;;;;;;15.07;2.85;;;3.90;99.90;;;;;;5024641;28;20084;-68
2022/01/20 00:43:08;;;;;;;23.38;2.80;;;3.90;99.90;;;;;;5029441;28;20049;-67
2022/01/20 00:45:33;;;;;;;17.08;2.70;;;3.80;99.90;;;;;;5017239;28;20040;-67
2022/01/20 00:47:59;;;;;;;18.83;3.08;;;3.80;99.90;;;;;;5017676;28;20045;-67
2022/01/20 00:50:26;;;;;;;17.90;3.35;;;3.80;99.90;;;;;;5015057;28;20051;-67
2022/01/20 00:52:51;;;;;;;16.60;2.80;;;3.80;99.90;;;;;;5029748;28;20045;-67
2022/01/20 00:55:18;;;;;;;21.95;3.38;;;3.80;99.90;;;;;;5029540;28;20487;-67
2022/01/20 00:57:44;;;;;;;20.83;2.50;;;3.80;99.90;;;;;;5029282;28;20048;-67
2022/01/20 01:00:13;;;;;;;23.92;2.80;;;3.80;99.90;;;;;;5027243;28;20119;-67
2022/01/20 01:02:40;;;;;;;23.85;2.92;;;3.90;99.90;;;;;;5029615;28;20081;-67
2022/01/20 01:05:10;;;;;;;11.13;2.53;;;3.90;99.90;;;;;;5000430;28;20040;-67
2022/01/20 01:10:21;;;;;;;7.50;1.50;;;4.00;99.90;;;;;;5025187;28;20068;-67
2022/01/20 01:12:59;;;;;;;13.15;1.52;;;3.90;99.90;;;;;;5027360;28;20067;-67
2022/01/20 01:15:31;;;;;;;12.48;1.50;;;3.90;99.90;;;;;;5013460;28;20553;-67
2022/01/20 01:23:36;;;;;;;9.38;1.88;;;3.90;99.90;;;;;;5023655;28;20048;-67
2022/01/20 01:26:04;;;;;;;7.60;1.65;;;3.90;99.90;;;;;;5026636;28;20049;-67
2022/01/20 01:28:31;;;;;;;6.70;1.38;;;3.90;99.90;;;;;;5031265;28;20064;-67
2022/01/20 01:33:29;;;;;;;12.15;1.92;;;3.80;99.90;;;;;;5042033;28;20067;-67
2022/01/20 01:35:57;;;;;;;12.93;1.35;;;3.80;99.90;;;;;;5005428;28;20044;-67
2022/01/20 01:40:50;;;;;;;10.48;1.67;;;3.70;99.90;;;;;;5013527;28;20062;-67
2022/01/20 01:43:24;;;;;;;11.10;1.80;;;3.70;99.90;;;;;;5036267;28;20107;-67
2022/01/20 01:45:50;;;;;;;16.30;1.80;;;3.70;99.90;;;;;;4989654;28;20067;-68
2022/01/20 01:48:16;;;;;;;13.25;1.67;;;3.70;99.90;;;;;;5016065;28;20083;-67
2022/01/20 01:50:42;;;;;;;13.68;1.95;;;3.70;99.90;;;;;;5028009;28;20070;-67
2022/01/20 01:53:08;;;;;;;19.65;2.08;;;3.70;99.90;;;;;;5027561;28;20044;-67
2022/01/20 01:55:35;;;;;;;17.83;2.40;;;3.70;99.90;;;;;;5015367;28;20602;-67
2022/01/20 01:58:01;;;;;;;16.98;3.08;;;3.70;99.90;;;;;;5023087;28;20132;-67
2022/01/20 02:00:30;;;;;;;19.55;2.45;;;3.80;99.90;;;;;;5033619;28;20041;-67
2022/01/20 02:02:57;;;;;;;19.75;2.92;;;3.80;99.90;;;;;;5017661;28;20081;-67
2022/01/20 02:05:23;;;;;;;19.73;2.90;;;3.80;99.90;;;;;;5002944;28;20229;-67
2022/01/20 02:18:51;;;;;;;9.77;1.95;;;4.10;99.90;;;;;;5030444;28;20150;-67
2022/01/20 02:21:17;;;;;;;16.35;2.42;;;4.00;99.90;;;;;;5022890;28;20066;-67
2022/01/20 02:23:46;;;;;;;17.00;2.72;;;3.80;99.90;;;;;;5010926;28;20083;-67
2022/01/20 02:26:12;;;;;;;16.65;2.88;;;3.60;99.90;;;;;;5020266;28;20128;-67
2022/01/20 02:28:38;;;;;;;20.15;2.85;;;3.50;99.90;;;;;;5015701;28;20052;-67
2022/01/20 02:31:05;;;;;;;18.02;2.70;;;3.40;99.90;;;;;;5029945;28;20041;-66
2022/01/20 02:33:31;;;;;;;24.88;4.00;;;3.70;99.90;;;;;;5028448;28;20067;-67
2022/01/20 02:36:05;;;;;;;23.98;3.15;;;3.50;99.90;;;;;;5003381;28;20052;-67
2022/01/20 02:38:41;;;;;;;19.52;2.95;;;3.50;99.90;;;;;;5048448;28;20843;-67
2022/01/20 02:46:38;;;;;;;27.15;3.80;;;3.60;99.90;;;;;;5027286;28;20056;-67
2022/01/20 02:49:07;;;;;;;22.95;4.18;;;3.60;99.90;;;;;;5018035;28;20052;-67
2022/01/20 02:51:34;;;;;;;37.47;4.80;;;3.60;99.90;;;;;;5015263;28;20395;-67
2022/01/20 02:54:00;;;;;;;25.48;4.15;;;3.70;99.90;;;;;;5013459;28;20061;-67
2022/01/20 02:56:26;;;;;;;34.33;4.68;;;3.70;99.90;;;;;;5009340;28;20463;-67
2022/01/20 02:58:52;;;;;;;29.92;3.90;;;3.70;99.90;;;;;;5037353;28;20040;-66
2022/01/20 03:01:18;;;;;;;21.70;3.65;;;3.80;99.90;;;;;;5028130;28;20051;-67
2022/01/20 03:03:43;;;;;;;27.25;3.85;;;3.80;99.90;;;;;;5034257;28;20037;-67
2022/01/20 03:06:09;;;;;;;15.02;2.88;;;3.80;99.90;;;;;;5029613;28;20098;-67
2022/01/20 03:08:36;;;;;;;21.63;3.40;;;3.80;99.90;;;;;;5021254;28;20053;-67
2022/01/20 03:11:02;;;;;;;21.17;4.00;;;3.80;99.90;;;;;;5026051;28;20190;-67
2022/01/20 03:13:28;;;;;;;31.13;4.28;;;3.70;99.90;;;;;;5028262;28;20056;-67
2022/01/20 03:15:54;;;;;;;25.98;4.15;;;3.70;99.90;;;;;;5020629;28;20052;-67
2022/01/20 03:18:20;;;;;;;23.77;4.00;;;3.70;99.90;;;;;;5047868;28;20049;-67
2022/01/20 03:20:45;;;;;;;27.20;4.30;;;3.70;99.90;;;;;;5029997;28;20111;-67
2022/01/20 03:23:11;;;;;;;27.95;4.05;;;3.70;99.90;;;;;;5031099;28;20045;-67
2022/01/20 03:25:37;;;;;;;22.25;4.10;;;3.70;99.90;;;;;;5001064;28;20110;-67
2022/01/20 03:28:03;;;;;;;23.17;4.10;;;3.70;99.90;;;;;;5015471;28;20439;-67
2022/01/20 03:30:29;;;;;;;18.67;2.75;;;3.70;99.90;;;;;;5027477;28;20052;-67
2022/01/20 03:32:55;;;;;;;15.10;3.13;;;3.70;99.90;;;;;;5028402;28;20044;-67
2022/01/20 03:35:21;;;;;;;9.32;2.75;;;3.70;99.90;;;;;;5026924;28;20060;-67
2022/01/20 03:37:47;;;;;;;13.60;2.35;;;3.70;99.90;;;;;;5033187;28;20052;-67
2022/01/20 03:40:13;;;;;;;18.45;2.60;;;3.70;99.90;;;;;;5034726;28;20050;-67
2022/01/20 03:42:39;;;;;;;12.02;2.70;;;3.70;99.90;;;;;;5012935;28;20111;-67
2022/01/20 03:45:05;;;;;;;16.02;3.33;;;3.70;99.90;;;;;;5013993;28;20499;-67
2022/01/20 03:47:31;;;;;;;19.20;3.22;;;3.60;99.90;;;;;;5014471;28;20094;-67
2022/01/20 03:52:29;;;;;;;14.98;2.92;;;3.50;99.90;;;;;;5046443;28;20070;-67
2022/01/20 03:54:55;;;;;;;15.75;3.13;;;3.50;99.90;;;;;;5013832;28;20060;-67
2022/01/20 03:57:20;;;;;;;11.55;2.60;;;3.40;99.90;;;;;;5030394;28;20076;-67
2022/01/20 03:59:47;;;;;;;7.97;2.40;;;3.30;99.90;;;;;;5023524;28;20114;-67
2022/01/20 04:02:13;;;;;;;12.65;2.75;;;3.30;99.90;;;;;;5008717;28;20040;-67
2022/01/20 04:04:39;;;;;;;14.73;2.40;;;3.30;99.90;;;;;;5028018;28;20144;-67
2022/01/20 04:07:05;;;;;;;15.50;2.85;;;3.20;99.90;;;;;;5013559;28;20098;-67
2022/01/20 04:09:31;;;;;;;17.05;3.00;;;3.20;99.90;;;;;;5029511;28;20086;-67
2022/01/20 04:11:57;;;;;;;13.32;2.53;;;3.20;99.90;;;;;;5036779;28;20056;-67
2022/01/20 04:14:25;;;;;;;13.82;2.28;;;3.20;99.90;;;;;;5019041;28;20044;-67
2022/01/20 04:19:21;;;;;;;16.42;2.65;;;3.20;99.90;;;;;;5029278;28;20076;-67
2022/01/20 04:21:47;;;;;;;21.02;2.70;;;3.20;99.90;;;;;;5005948;28;20147;-67
2022/01/20 04:24:14;;;;;;;18.92;3.85;;;3.20;99.90;;;;;;5025787;28;20037;-67
2022/01/20 04:26:43;;;;;;;13.30;2.53;;;3.20;99.90;;;;;;4998112;28;20045;-67
2022/01/20 04:29:11;;;;;;;16.20;2.33;;;3.30;99.90;;;;;;5033433;28;20049;-67
2022/01/20 04:31:38;;;;;;;19.80;3.35;;;3.30;99.90;;;;;;5027124;28;20227;-67
2022/01/20 04:34:05;;;;;;;30.92;3.88;;;3.40;99.90;;;;;;4996033;28;20118;-67
2022/01/20 04:36:34;;;;;;;26.27;4.55;;;3.40;99.90;;;;;;5034525;28;20044;-68
2022/01/20 04:39:03;;;;;;;16.45;3.10;;;3.40;99.90;;;;;;5031973;28;20084;-67
2022/01/20 04:41:30;;;;;;;15.77;2.88;;;3.40;99.90;;;;;;5014567;28;20052;-67
2022/01/20 04:44:00;;;;;;;14.45;2.95;;;3.40;99.90;;;;;;5033876;28;20042;-67
2022/01/20 04:59:32;;;;;;;14.38;2.90;;;3.10;99.90;;;;;;5029184;28;20049;-67
2022/01/20 05:01:58;;;;;;;10.25;2.65;;;3.10;99.90;;;;;;5003706;28;20750;-67
2022/01/20 05:04:25;;;;;;;6.68;1.48;;;3.10;99.90;;;;;;5006551;28;20048;-67
2022/01/20 05:06:54;;;;;;;8.40;1.42;;;3.00;99.90;;;;;;5025880;28;20045;-67
2022/01/20 05:09:21;;;;;;;8.20;1.50;;;2.90;99.90;;;;;;5031007;28;20044;-67
2022/01/20 05:11:52;;;;;;;8.77;1.63;;;2.80;99.90;;;;;;5016088;28;20553;-67
2022/01/20 05:14:18;;;;;;;7.43;1.48;;;2.70;99.90;;;;;;5025844;28;20554;-67
2022/01/20 05:16:44;;;;;;;8.18;1.50;;;2.60;99.90;;;;;;5022106;28;20049;-67
2022/01/20 05:19:10;;;;;;;4.95;1.50;;;2.60;99.90;;;;;;5050496;28;20056;-67
2022/01/20 05:21:36;;;;;;;11.48;1.88;;;2.50;99.90;;;;;;5036845;28;20045;-67
2022/01/20 05:24:03;;;;;;;8.25;1.85;;;2.50;99.90;;;;;;5015405;28;20091;-67
2022/01/20 05:26:29;;;;;;;11.55;2.40;;;2.40;99.90;;;;;;5028652;28;20596;-67
2022/01/20 05:28:55;;;;;;;18.23;3.20;;;2.40;99.90;;;;;;5012191;28;20053;-67
2022/01/20 05:31:21;;;;;;;17.02;2.28;;;2.30;99.90;;;;;;5032564;28;20466;-67
2022/01/20 05:33:47;;;;;;;19.92;3.22;;;2.30;99.90;;;;;;5013992;28;20593;-67
2022/01/20 05:36:13;;;;;;;16.33;3.22;;;2.30;99.90;;;;;;5030999;28;20048;-67
2022/01/20 05:38:39;;;;;;;21.13;3.40;;;2.30;99.90;;;;;;5031781;28;20055;-67
2022/01/20 05:41:05;;;;;;;18.65;3.55;;;2.30;99.90;;;;;;5033491;28;20617;-68
2022/01/20 05:43:31;;;;;;;19.63;3.08;;;2.40;99.90;;;;;;5034505;28;20053;-67
2022/01/20 05:45:56;;;;;;;15.80;3.22;;;2.40;99.90;;;;;;5030424;28;20041;-67
2022/01/20 05:48:33;;;;;;;17.85;3.00;;;2.50;99.90;;;;;;5023886;28;20137;-67
2022/01/20 05:50:59;;;;;;;12.93;2.30;;;2.60;99.90;;;;;;5029312;28;20083;-67
2022/01/20 05:53:25;;;;;;;16.98;2.53;;;2.60;99.90;;;;;;5029896;28;20131;-67
2022/01/20 05:55:51;;;;;;;16.63;2.70;;;2.60;99.90;;;;;;5035368;28;20049;-68
2022/01/20 05:58:19;;;;;;;17.17;2.40;;;2.60;99.90;;;;;;5003992;28;20099;-67
2022/01/20 06:00:46;;;;;;;17.33;3.70;;;2.60;99.90;;;;;;5017161;28;20049;-68
2022/01/20 06:05:57;;;;;;;12.73;2.53;;;2.70;99.90;;;;;;5032649;28;20406;-68
2022/01/20 06:08:23;;;;;;;22.08;3.83;;;2.80;99.90;;;;;;4996603;28;20048;-67
2022/01/20 06:10:49;;;;;;;19.65;3.70;;;2.80;99.90;;;;;;5031654;28;20040;-67
2022/01/20 06:13:15;;;;;;;20.15;3.50;;;2.90;99.90;;;;;;5029918;28;20123;-67
2022/01/20 06:15:41;;;;;;;20.23;3.00;;;2.90;99.90;;;;;;5019886;28;22785;-67
2022/01/20 06:18:07;;;;;;;18.75;3.30;;;3.00;99.90;;;;;;5032273;28;20055;-67
2022/01/20 06:20:34;;;;;;;24.75;3.30;;;3.00;99.90;;;;;;5027273;28;20044;-67
2022/01/20 06:23:00;;;;;;;21.63;3.58;;;3.00;99.90;;;;;;5032759;28;20040;-67
2022/01/20 06:25:26;;;;;;;23.50;4.03;;;2.90;99.90;;;;;;5031819;28;20041;-67
2022/01/20 06:27:51;;;;;;;19.48;3.45;;;2.90;99.90;;;;;;5030207;28;20138;-67
2022/01/20 06:30:17;;;;;;;24.67;3.22;;;2.90;99.90;;;;;;5032765;28;20051;-67
2022/01/20 06:32:44;;;;;;;18.67;3.25;;;2.90;99.90;;;;;;5018201;28;20045;-67
2022/01/20 06:35:10;;;;;;;17.45;4.15;;;2.70;99.90;;;;;;5009501;28;20056;-67
2022/01/20 06:37:36;;;;;;;20.70;3.22;;;2.60;99.90;;;;;;4998714;28;20134;-67
2022/01/20 06:40:03;;;;;;;17.20;3.30;;;2.50;99.90;;;;;;5026975;28;20118;-67
2022/01/20 06:42:29;;;;;;;15.27;3.30;;;2.40;99.90;;;;;;5030414;28;20095;-67
2022/01/20 06:44:55;;;;;;;14.55;2.35;;;2.40;99.90;;;;;;5025926;28;20498;-67
2022/01/20 06:47:21;;;;;;;12.60;2.67;;;2.40;99.90;;;;;;5029450;28;20123;-67
2022/01/20 06:49:47;;;;;;;13.00;2.97;;;2.40;99.90;;;;;;5016307;28;20055;-67
2022/01/20 06:52:13;;;;;;;17.45;2.78;;;2.30;99.90;;;;;;5050863;28;20049;-67
2022/01/20 06:54:40;;;;;;;14.80;2.85;;;2.30;99.90;;;;;;5030410;28;20930;-67
2022/01/20 06:57:06;;;;;;;19.25;2.88;;;2.30;99.90;;;;;;5015926;28;20132;-68
2022/01/20 06:59:31;;;;;;;21.35;3.72;;;2.30;99.90;;;;;;5015576;28;20044;-67
2022/01/20 07:01:57;;;;;;;17.95;2.55;;;2.30;99.90;;;;;;5016667;28;20051;-67
2022/01/20 07:04:26;;;;;;;25.50;3.20;;;2.20;99.90;;;;;;5016718;28;20124;-67
2022/01/20 07:06:53;;;;;;;16.30;2.50;;;2.20;99.90;;;;;;5016653;28;20048;-67
2022/01/20 07:09:19;;;;;;;17.20;2.97;;;2.20;99.90;;;;;;5016739;28;20045;-67
2022/01/20 07:11:44;;;;;;;21.42;3.65;;;2.20;99.90;;;;;;5015986;28;20060;-67
2022/01/20 07:14:10;;;;;;;16.17;2.78;;;2.20;99.90;;;;;;5027130;28;20044;-67
2022/01/20 07:16:36;;;;;;;14.93;2.30;;;2.40;99.90;;;;;;5028049;28;20068;-67
2022/01/20 07:19:02;;;;;;;14.55;2.30;;;2.40;99.90;;;;;;5033184;28;20470;-67
2022/01/20 07:21:28;;;;;;;16.80;2.83;;;2.40;99.90;;;;;;5016976;28;20045;-67
2022/01/20 07:23:54;;;;;;;16.08;2.65;;;2.40;99.90;;;;;;5004761;28;20041;-67
2022/01/20 07:26:20;;;;;;;17.63;2.90;;;2.40;99.90;;;;;;5031153;28;20047;-67
2022/01/20 07:28:46;;;;;;;11.40;2.78;;;2.40;99.90;;;;;;5042677;28;20133;-67
2022/01/20 07:31:12;;;;;;;19.20;2.75;;;2.40;99.90;;;;;;5016777;28;20127;-67
2022/01/20 07:33:38;;;;;;;16.40;3.70;;;2.30;99.90;;;;;;5026823;28;20056;-67
2022/01/20 07:36:04;;;;;;;16.50;2.85;;;2.30;99.90;;;;;;5031818;28;20044;-67
2022/01/20 07:38:31;;;;;;;22.23;3.30;;;2.30;99.90;;;;;;5027627;28;20080;-67
2022/01/20 07:40:57;;;;;;;20.20;4.22;;;2.30;99.90;;;;;;5015386;28;20067;-67
2022/01/20 07:43:23;;;;;;;18.45;2.67;;;2.30;99.90;;;;;;5032016;28;20049;-67
2022/01/20 07:45:49;;;;;;;17.10;2.78;;;2.30;99.90;;;;;;5034401;28;20044;-67
2022/01/20 07:48:15;;;;;;;21.27;3.00;;;2.40;99.90;;;;;;5029495;28;20072;-67
2022/01/20 07:50:41;;;;;;;19.20;3.08;;;2.40;99.90;;;;;;5020547;28;20049;-67
2022/01/20 07:53:07;;;;;;;15.25;2.20;;;2.40;99.90;;;;;;5030210;28;20574;-67
2022/01/20 07:55:32;;;;;;;11.25;2.45;;;2.30;99.90;;;;;;5029872;28;20122;-67
2022/01/20 07:57:59;;;;;;;18.58;2.85;;;2.20;99.90;;;;;;5027230;28;20116;-67
2022/01/20 08:00:26;;;;;;;14.52;3.35;;;2.20;99.90;;;;;;5014509;28;20060;-67
2022/01/20 08:02:52;;;;;;;21.17;3.53;;;2.10;99.90;;;;;;5032990;28;20392;-67
2022/01/20 08:05:18;;;;;;;19.75;3.42;;;2.10;99.90;;;;;;5013040;28;20052;-67
2022/01/20 08:07:44;;;;;;;25.92;3.40;;;2.10;99.90;;;;;;5033202;28;20530;-67
2022/01/20 08:10:12;;;;;;;21.85;4.55;;;2.10;99.90;;;;;;5030634;28;20102;-67
2022/01/20 08:12:38;;;;;;;25.25;3.28;;;2.10;99.90;;;;;;5029786;28;20130;-67
2022/01/20 08:15:04;;;;;;;25.17;3.60;;;2.10;99.90;;;;;;5029254;28;20048;-67
2022/01/20 08:17:30;;;;;;;27.67;4.05;;;2.20;99.90;;;;;;5029521;28;20129;-67
2022/01/20 08:19:58;;;;;;;22.15;3.38;;;2.30;99.90;;;;;;5003008;28;20041;-68
2022/01/20 08:22:24;;;;;;;17.15;3.60;;;2.30;99.90;;;;;;5028230;28;20052;-67
2022/01/20 08:24:52;;;;;;;17.15;2.67;;;2.40;99.90;;;;;;5010744;28;20049;-67
2022/01/20 08:27:21;;;;;;;14.73;2.40;;;2.50;99.90;;;;;;5042248;28;20128;-67
2022/01/20 08:29:48;;;;;;;23.13;2.95;;;2.50;99.90;;;;;;5036955;28;20384;-67
2022/01/20 08:32:13;;;;;;;11.48;2.85;;;2.50;99.90;;;;;;5027104;28;20443;-67
2022/01/20 08:34:39;;;;;;;17.33;2.60;;;2.60;99.90;;;;;;5016173;28;20494;-67
2022/01/20 08:37:05;;;;;;;15.70;3.10;;;2.60;99.90;;;;;;5032078;28;20056;-67
2022/01/20 08:42:01;;;;;;;11.02;1.80;;;2.80;99.90;;;;;;5027103;28;20486;-67
2022/01/20 08:44:26;;;;;;;12.27;2.15;;;2.90;99.90;;;;;;5008142;28;20048;-67
2022/01/20 08:46:53;;;;;;;16.20;2.00;;;2.90;99.90;;;;;;5033268;28;20122;-67
2022/01/20 08:49:20;;;;;;;11.55;1.90;;;2.90;99.90;;;;;;5034500;28;20045;-67
2022/01/20 08:51:47;;;;;;;7.57;2.35;;;2.80;99.90;;;;;;5017276;28;20079;-67
2022/01/20 08:54:13;;;;;;;9.95;1.65;;;2.60;99.90;;;;;;5035607;28;20154;-67
2022/01/20 08:56:40;;;;;;;6.20;1.50;;;2.50;99.90;;;;;;5033810;28;20460;-67
2022/01/20 08:59:07;;;;;;;9.50;1.40;;;2.40;99.90;;;;;;5020863;28;20045;-67
2022/01/20 09:01:34;;;;;;;10.35;1.50;;;2.30;99.90;;;;;;5031066;28;20044;-67
2022/01/20 09:03:59;;;;;;;9.77;1.90;;;2.20;99.90;;;;;;5014568;28;20052;-67
2022/01/20 09:06:25;;;;;;;7.40;1.52;;;2.20;99.90;;;;;;5000374;28;20052;-67
2022/01/20 09:08:52;;;;;;;13.23;2.42;;;2.20;99.90;;;;;;5012360;28;20052;-67
2022/01/20 09:11:24;;;;;;;14.65;2.40;;;2.20;99.90;;;;;;5030002;28;20048;-67
2022/01/20 09:16:36;;;;;;;11.48;1.98;;;2.40;99.90;;;;;;5017265;28;20056;-66
2022/01/20 09:19:03;;;;;;;14.13;3.28;;;2.40;99.90;;;;;;5020240;28;20063;-66
2022/01/20 09:21:29;;;;;;;12.75;2.15;;;2.40;99.90;;;;;;5044626;28;20080;-66
2022/01/20 09:23:56;;;;;;;14.13;2.63;;;2.40;99.90;;;;;;4999582;28;20119;-67
2022/01/20 09:26:23;;;;;;;8.80;1.95;;;2.40;99.90;;;;;;5025634;28;20581;-67
2022/01/20 09:28:49;;;;;;;14.15;2.33;;;2.40;99.90;;;;;;5036106;28;20453;-66
2022/01/20 09:31:17;;;;;;;14.65;2.08;;;2.40;99.90;;;;;;5002152;28;20057;-67
2022/01/20 09:33:44;;;;;;;13.55;2.50;;;2.40;99.90;;;;;;5026628;28;20080;-67
2022/01/20 09:36:12;;;;;;;18.90;3.42;;;2.40;99.90;;;;;;5027564;28;20052;-66
2022/01/20 09:38:38;;;;;;;13.35;2.33;;;2.50;99.90;;;;;;5035821;28;20045;-66
2022/01/20 09:41:05;;;;;;;17.63;3.00;;;2.60;99.90;;;;;;5007945;28;20045;-66
2022/01/20 09:43:32;;;;;;;16.05;2.80;;;2.80;99.90;;;;;;5029632;28;20514;-66
2022/01/20 09:45:58;;;;;;;17.02;3.00;;;3.00;99.90;;;;;;5014085;28;20159;-66
2022/01/20 09:48:26;;;;;;;14.20;2.72;;;3.10;99.90;;;;;;5024856;28;20060;-66
2022/01/20 09:50:53;;;;;;;16.13;2.80;;;3.30;99.90;;;;;;5010594;28;20049;-66
2022/01/20 09:53:19;;;;;;;15.05;2.80;;;3.40;99.90;;;;;;5015479;28;20048;-67
2022/01/20 09:55:46;;;;;;;12.60;2.50;;;3.40;99.90;;;;;;5023382;28;20108;-66
2022/01/20 09:58:13;;;;;;;12.80;2.53;;;3.40;99.90;;;;;;5030578;28;20052;-66
2022/01/20 10:00:41;;;;;;;14.48;2.30;;;3.40;99.90;;;;;;5017464;28;20492;-66
2022/01/20 10:03:12;;;;;;;15.07;2.67;;;3.40;99.90;;;;;;5026757;28;20045;-66
2022/01/20 10:05:47;;;;;;;21.15;3.80;;;3.50;99.90;;;;;;5028852;28;20495;-66
2022/01/20 10:08:21;;;;;;;18.48;3.17;;;3.50;99.90;;;;;;5012377;28;20052;-66
2022/01/20 10:10:54;;;;;;;9.68;2.30;;;3.60;99.90;;;;;;5026827;28;20049;-66
2022/01/20 10:13:23;;;;;;;15.13;1.83;;;3.60;99.90;;;;;;4998738;28;20141;-67
2022/01/20 10:16:00;;;;;;;7.28;1.77;;;3.60;99.90;;;;;;5027705;28;20111;-67
2022/01/20 10:18:28;;;;;;;14.07;1.83;;;3.60;99.90;;;;;;5018721;28;20450;-66
2022/01/20 10:21:05;;;;;;;16.15;2.55;;;3.60;99.90;;;;;;5001994;28;20056;-67
2022/01/20 10:23:40;;;;;;;14.05;2.58;;;3.50;99.90;;;;;;5011349;28;20183;-67
2022/01/20 10:26:13;;;;;;;13.60;2.42;;;3.50;99.90;;;;;;5034922;28;20455;-66
2022/01/20 10:29:00;;;;;;;15.38;3.22;;;3.50;99.90;;;;;;5015493;28;20053;-66
2022/01/20 10:31:46;;;;;;;15.48;3.15;;;3.60;99.90;;;;;;5028995;28;20458;-67
2022/01/20 10:34:18;;;;;;;20.27;3.40;;;3.70;99.90;;;;;;5027520;28;20053;-67
2022/01/20 10:36:53;;;;;;;21.33;3.63;;;3.70;99.90;;;;;;5028863;28;20585;-67
2022/01/20 10:39:33;;;;;;;12.05;2.10;;;3.80;99.90;;;;;;5029236;28;20119;-67
2022/01/20 10:42:08;;;;;;;12.77;2.05;;;3.80;99.90;;;;;;5031147;28;20056;-67
2022/01/20 10:44:48;;;;;;;6.20;1.83;;;3.80;99.90;;;;;;5027651;28;20384;-67
2022/01/20 10:47:16;;;;;;;9.95;2.05;;;3.80;99.90;;;;;;5030831;28;20205;-67
2022/01/20 10:49:44;;;;;;;11.40;2.55;;;3.80;99.90;;;;;;5033814;28;20545;-67
2022/01/20 10:52:11;;;;;;;8.35;2.10;;;3.80;99.90;;;;;;5028779;28;20420;-66
2022/01/20 10:54:49;;;;;;;13.95;3.05;;;3.90;99.90;;;;;;5024341;28;20061;-67
2022/01/20 10:57:16;;;;;;;17.38;2.67;;;4.00;99.90;;;;;;5029290;28;20057;-67
2022/01/20 10:59:52;;;;;;;15.85;2.60;;;4.10;99.90;;;;;;5017931;28;20049;-67
2022/01/20 11:02:21;;;;;;;15.40;2.67;;;4.30;99.90;;;;;;5027015;28;20358;-66
2022/01/20 11:04:48;;;;;;;16.33;2.78;;;4.40;99.90;;;;;;5023557;28;20658;-66
2022/01/20 11:07:14;;;;;;;14.95;3.70;;;4.50;99.90;;;;;;4996186;28;20056;-67
2022/01/20 11:09:43;;;;;;;20.05;3.55;;;4.50;99.90;;;;;;5011213;28;20049;-66
2022/01/20 11:12:15;;;;;;;18.83;3.47;;;4.40;99.90;;;;;;5013722;28;20049;-66
2022/01/20 11:14:43;;;;;;;21.20;4.03;;;4.30;99.90;;;;;;5033849;28;20045;-67
2022/01/20 11:17:18;;;;;;;18.30;3.17;;;4.20;99.90;;;;;;5046872;28;20053;-66
2022/01/20 11:19:45;;;;;;;15.32;2.72;;;4.00;99.90;;;;;;5030331;28;20049;-66
2022/01/20 11:22:13;;;;;;;12.70;2.85;;;4.00;99.90;;;;;;5022088;28;20048;-67
2022/01/20 11:24:41;;;;;;;22.13;3.30;;;4.00;99.90;;;;;;5025756;28;20049;-67
2022/01/20 11:27:11;;;;;;;24.10;3.53;;;4.00;99.90;;;;;;5009975;28;20045;-67
2022/01/20 11:29:56;;;;;;;18.33;3.03;;;4.20;99.90;;;;;;5026012;28;20514;-66
2022/01/20 11:32:23;;;;;;;18.52;3.03;;;4.30;99.90;;;;;;5014162;28;20064;-66
2022/01/20 11:35:08;;;;;;;21.50;4.03;;;4.30;99.90;;;;;;5006170;28;20049;-66
2022/01/20 11:37:37;;;;;;;17.25;2.80;;;4.10;99.90;;;;;;5045677;28;20586;-66
2022/01/20 11:40:13;;;;;;;15.57;3.08;;;3.90;99.90;;;;;;5024123;28;20556;-66
2022/01/20 11:42:39;;;;;;;19.05;3.30;;;3.60;99.90;;;;;;5027102;28;20049;-66
2022/01/20 11:45:32;;;;;;;17.67;2.60;;;3.50;99.90;;;;;;5026920;28;20504;-66
2022/01/20 11:48:10;;;;;;;14.13;2.92;;;3.30;99.90;;;;;;5028230;28;20072;-66
2022/01/20 11:50:36;;;;;;;14.45;2.90;;;3.30;99.90;;;;;;5028200;28;20527;-66
2022/01/20 11:53:13;;;;;;;13.45;2.40;;;3.20;99.90;;;;;;5015385;28;20041;-66
2022/01/20 11:55:53;;;;;;;17.63;2.97;;;3.30;99.90;;;;;;5029645;28;20404;-66
2022/01/20 11:58:21;;;;;;;15.50;2.60;;;3.40;99.90;;;;;;5030316;28;20594;-66
2022/01/20 12:01:01;;;;;;;20.25;3.47;;;3.60;99.90;;;;;;5027591;28;20056;-66
2022/01/20 12:03:28;;;;;;;21.75;3.45;;;3.80;99.90;;;;;;5024878;28;20048;-66
2022/01/20 12:06:09;;;;;;;21.85;3.40;;;4.10;99.90;;;;;;5017190;28;20044;-66
2022/01/20 12:08:35;;;;;;;17.67;3.45;;;4.30;99.90;;;;;;5029142;28;20455;-66
2022/01/20 12:11:09;;;;;;;26.55;3.20;;;4.30;99.90;;;;;;5024709;28;20072;-66
2022/01/20 12:13:55;;;;;;;20.48;2.92;;;4.20;99.90;;;;;;5009570;28;20053;-66
2022/01/20 12:16:24;;;;;;;23.15;3.20;;;4.20;99.90;;;;;;5017522;28;20045;-66
2022/01/20 12:18:55;;;;;;;17.52;3.13;;;4.10;99.90;;;;;;5023813;28;20404;-66
2022/01/20 12:21:22;;;;;;;16.55;3.17;;;4.00;99.90;;;;;;5025840;28;20159;-66
2022/01/20 12:23:50;;;;;;;17.48;2.67;;;4.00;99.90;;;;;;5027665;28;20059;-66
2022/01/20 12:26:16;;;;;;;14.73;2.70;;;4.00;99.90;;;;;;5010221;28;20045;-66
2022/01/20 12:28:42;;;;;;;13.20;2.67;;;4.10;99.90;;;;;;5031987;28;20045;-66
2022/01/20 12:31:09;;;;;;;21.23;2.88;;;4.10;99.90;;;;;;5007219;28;20045;-66
2022/01/20 12:33:41;;;;;;;20.88;3.83;;;4.10;99.90;;;;;;5021630;28;20057;-66
2022/01/20 12:36:15;;;;;;;19.97;3.50;;;4.10;99.90;;;;;;5019513;28;20053;-67
2022/01/20 12:38:42;;;;;;;19.48;4.00;;;4.00;99.90;;;;;;5025825;28;20808;-67
2022/01/20 12:41:14;;;;;;;21.65;3.10;;;4.00;99.90;;;;;;5010153;28;20045;-66
2022/01/20 12:43:58;;;;;;;22.08;3.03;;;4.10;99.90;;;;;;5023339;28;20128;-66
2022/01/20 12:46:29;;;;;;;13.52;3.17;;;4.20;99.90;;;;;;5027390;28;20047;-66
2022/01/20 12:49:12;;;;;;;19.95;3.17;;;4.20;99.90;;;;;;5025022;28;20108;-66
2022/01/20 12:51:53;;;;;;;;;;;4.30;99.90;;;;;;5013870;28;20037;-67
2022/01/20 12:54:31;;;;;;;14.82;2.42;;;4.40;99.90;;;;;;5026402;28;20062;-66
2022/01/20 12:57:09;;;;;;;12.90;2.78;;;4.60;99.90;;;;;;5036255;28;20091;-66
2022/01/20 12:59:44;;;;;;;17.25;3.42;;;4.60;99.90;;;;;;5021958;28;20126;-66
2022/01/20 13:02:23;;;;;;;18.63;3.13;;;4.60;99.90;;;;;;5028163;28;20052;-66
2022/01/20 13:04:56;;;;;;;10.23;2.17;;;4.60;99.90;;;;;;5029962;28;20066;-66
2022/01/20 13:07:22;;;;;;;;;;;4.50;99.90;;;;;;5033331;28;20441;-66
2022/01/20 13:09:59;;;;;;;9.48;1.55;;;4.20;99.90;;;;;;5034152;28;19927;-67
2022/01/20 13:12:38;;;;;;;8.65;1.80;;;3.90;99.90;;;;;;5017840;28;20137;-66
2022/01/20 13:15:16;;;;;;;4.60;1.55;;;3.70;99.90;;;;;;5023291;28;20265;-67
2022/01/20 13:17:43;;;;;;;10.00;1.25;;;3.60;99.90;;;;;;5035507;28;20044;-66
2022/01/20 13:20:20;;;;;;;7.35;1.30;;;3.50;99.90;;;;;;5030119;28;20059;-67
2022/01/20 13:22:56;;;;;;;5.18;1.33;;;3.60;99.90;;;;;;5030487;28;21202;-66
2022/01/20 13:25:27;;;;;;;6.95;1.40;;;3.60;99.90;;;;;;5008974;28;20127;-66
2022/01/20 13:27:57;;;;;;;9.95;1.98;;;3.80;99.90;;;;;;5027449;28;20206;-66
2022/01/20 13:30:36;;;;;;;18.88;2.25;;;4.00;99.90;;;;;;5015458;28;20044;-66
2022/01/20 13:33:04;;;;;;;15.55;2.13;;;4.20;99.90;;;;;;5038588;28;20071;-66
2022/01/20 13:35:44;;;;;;;12.70;2.65;;;4.30;99.90;;;;;;5029085;28;20457;-66
2022/01/20 13:38:10;;;;;;;11.73;2.22;;;4.30;99.90;;;;;;5006420;28;20051;-67
2022/01/20 13:40:38;;;;;;;17.77;3.05;;;4.20;99.90;;;;;;5034232;28;20049;-67
2022/01/20 13:46:00;;;;;;;19.30;2.45;;;4.00;99.90;;;;;;5028093;28;20117;-67
2022/01/20 13:48:34;;;;;;;15.45;3.33;;;3.90;99.90;;;;;;5025868;28;20041;-66
2022/01/20 13:51:02;;;;;;;13.10;3.13;;;4.00;99.90;;;;;;5029045;28;20047;-67
2022/01/20 13:53:30;;;;;;;16.77;2.85;;;3.90;99.90;;;;;;5027476;28;20045;-66
2022/01/20 13:56:06;;;;;;;16.90;3.50;;;3.90;99.90;;;;;;5045642;28;20159;-66
2022/01/20 13:58:34;;;;;;;20.50;3.00;;;4.00;99.90;;;;;;5011396;28;20499;-67
2022/01/20 14:01:08;;;;;;;16.95;3.25;;;4.00;99.90;;;;;;5027851;28;20052;-67
2022/01/20 14:03:35;;;;;;;22.55;3.05;;;4.00;99.90;;;;;;5033375;28;20496;-67
2022/01/20 14:06:01;;;;;;;22.10;3.30;;;4.10;99.90;;;;;;5031513;28;20476;-66
2022/01/20 14:08:27;;;;;;;15.82;3.03;;;4.00;99.90;;;;;;5031971;28;20055;-66
2022/01/20 14:10:54;;;;;;;19.73;3.03;;;3.90;99.90;;;;;;5035524;28;20424;-66
2022/01/20 14:13:21;;;;;;;17.13;3.13;;;3.90;99.90;;;;;;5012894;28;20047;-67
2022/01/20 14:15:50;;;;;;;18.23;3.25;;;3.80;99.90;;;;;;5004134;28;20371;-67
2022/01/20 14:18:20;;;;;;;14.65;2.40;;;3.80;99.90;;;;;;5021262;28;20040;-67
2022/01/20 14:20:46;;;;;;;16.70;2.60;;;3.80;99.90;;;;;;5023659;28;20041;-67
2022/01/20 14:23:13;;;;;;;18.63;2.97;;;3.70;99.90;;;;;;5027858;28;20067;-66